Terminal Aerodrome Forecast
Issued by NWS Knoxville/Tri Cities, TN

Home | Current Version | Previous Version | Text Only | Print | Product List | Glossary On
Versions: 1 2 3 4 5 6 7 8 9 10 11 12 13 14 15 16 17 18 19 20 21 22 23 24 25 26 27 28 29 30 31 32
000
FTUS44 KMRX 301349 AAD
TAFCHA
TAF AMD
KCHA 301349Z 3014/0112 24008KT P6SM VCTS SCT035CB BKN080
      TEMPO 3014/3015 4SM -TSRA BR SCT015CB BKN025
     FM301500 23010KT P6SM SCT050 BKN100
     FM302200 23010G16KT P6SM VCTS BKN050CB
     FM010300 25005KT P6SM SCT040 BKN090
     FM010700 21003KT P6SM SCT080 BKN200=

USA.gov is the U.S. government's official web portal to all federal, state and local government web resources and services.